• Join FlightAware (Why Join?)
  • Login
  • US Flag 
04:03AM EDT


 

Airport Tracker/Info


-or-


 

Live Flight TrackerFlight Track Log ✈ LAK145 ✈ 20-Mar-2014 ✈ KRGK - KRGK

Flight Track Log - Related Links

Times and Time Zones

All times are in EDT time to prevent confusion due to time zone crossing. See the LAK145 flight status page for this flight to view local times or setup timezone preferences in your user account.

Time Position Orientation Groundspeed Altitude Reporting Facility
EDT Latitude Longitude Course Direction KTS MPH feet Rate Location/Type
12:20PM 44.5833 -92.5333 270° West 168 193 2,900  Level Minneapolis TRACON
12:22PM 44.5822 -92.6975 157° South 200 230 3,200 480 Climbing Minneapolis Center
12:23PM 44.5508 -92.7672 238° Southwest 208 239 4,500 1,200 Climbing Minneapolis Center
12:24PM 44.5192 -92.8372 238° Southwest 210 242 5,800 960 Climbing Minneapolis Center
12:25PM 44.4786 -92.8936 225° Southwest 215 247 6,500 240 Climbing Minneapolis Center
12:26PM 44.4136 -92.8908 178° South 233 268 6,400  Descending Minneapolis Center
12:27PM 44.3525 -92.8858 177° South 224 258 6,500  Climbing Minneapolis Center
12:28PM 44.2814 -92.8808 177° South 220 253 6,400  Descending Minneapolis Center
12:29PM 44.2928 -92.9208 292° West 216 249 6,500  Climbing Minneapolis Center
12:30PM 44.3519 -92.9269 356° North 204 235 6,500  Level Minneapolis Center
12:31PM 44.3319 -92.9411 207° Southwest 238 274 6,500  Level Minneapolis Center
12:32PM 44.3667 -92.8872 48° Northeast 255 293 6,500  Level Minneapolis Center
12:33PM 44.3483 -92.9169 229° Southwest 197 227 6,600  Climbing Minneapolis Center
12:34PM 44.4058 -92.9203 358° North 205 236 6,500 -120 Descending Minneapolis Center
12:35PM 44.3900 -92.9017 140° Southeast 217 250 6,400  Descending Minneapolis Center
12:36PM 44.4425 -92.9031 359° North 202 232 6,500  Climbing Minneapolis Center
12:37PM 44.4536 -92.8614 70° East 242 278 6,400  Descending Minneapolis Center
12:38PM 44.4739 -92.8889 316° Northwest 209 241 6,500  Climbing Minneapolis Center
12:39PM 44.4850 -92.9328 290° West 200 230 6,500 -60 Level Minneapolis Center
12:40PM 44.4261 -92.9314 179° South 211 243 6,400 -60 Descending Minneapolis Center
12:41PM 44.3575 -92.9286 178° South 205 236 6,400  Level Minneapolis Center
12:42PM 44.3217 -92.9250 176° South 124 143 6,400 300 Level Minneapolis Center
12:43PM 44.2683 -92.9194 176° South 205 236 7,100  Climbing Minneapolis Center
12:45PM 44.2736 -92.8692 44° Northeast 161 185 6,500 -240 Descending Minneapolis Center
12:46PM 44.3019 -92.8642 North 102 117 6,500 180 Level Minneapolis Center
12:47PM 44.3472 -92.8575 North 162 186 6,900  Climbing Minneapolis Center
12:49PM 44.3897 -92.8517 North 153 176 6,500 -180 Descending Minneapolis Center
12:51PM 44.3478 -92.8706 198° South 138 159 6,500 -60 Level Minneapolis Center
12:52PM 44.2931 -92.8672 178° South 210 242 6,400  Descending Minneapolis Center
12:53PM 44.2356 -92.8631 177° South 191 220 6,500  Climbing Minneapolis Center
12:54PM 44.1883 -92.8597 177° South 176 203 6,500  Level Minneapolis Center
12:55PM 44.1336 -92.8553 177° South 183 211 6,500 -420 Level Minneapolis Center
12:56PM 44.0947 -92.8161 144° Southeast 223 257 5,700 -1,260 Descending Minneapolis Center
12:57PM 44.1386 -92.7531 46° Northeast 212 244 3,900 -1,320 Descending Minneapolis Center
12:58PM 44.1811 -92.7050 39° Northeast 201 231 3,000 -480 Descending Minneapolis Center
12:59PM 44.2183 -92.6575 42° Northeast 171 197 3,000  Level Minneapolis Center
01:00PM 44.2511 -92.6156 43° Northeast 163 188 3,000  Level Minneapolis Center
01:01PM 44.2883 -92.5681 42° Northeast 167 192 3,000  Level Minneapolis Center
01:02PM 44.3233 -92.5239 42° Northeast 168 193 3,000  Level Minneapolis Center
01:03PM 44.3550 -92.4814 44° Northeast 169 194 3,000  Level Minneapolis Center
01:04PM 44.3911 -92.4367 42° Northeast 171 197 3,000  Level Minneapolis Center
01:05PM 44.4339 -92.3831 42° Northeast 171 197 3,000  Level Minneapolis Center
01:06PM 44.4686 -92.3378 43° Northeast 171 197 3,000  Level Minneapolis Center
01:07PM 44.5064 -92.2900 42° Northeast 171 197 3,000  Level Minneapolis Center
01:08PM 44.5406 -92.2461 42° Northeast 170 196 3,000  Level Minneapolis Center
01:09PM 44.5769 -92.1964 44° Northeast 170 196 3,000  Level Minneapolis Center
01:10PM 44.5897 -92.1297 75° East 173 199 3,000  Level Minneapolis Center
01:11PM 44.5678 -92.1514 215° Southwest 149 171 3,000 -60 Level Minneapolis Center
01:12PM 44.5789 -92.2111 285° West 149 171 2,900 -180 Descending Minneapolis Center
01:13PM 44.5794 -92.2650 271° West 141 162 2,700 -120 Descending Minneapolis Center
01:14PM 44.5819 -92.3208 274° West 137 158 2,700 -120 Level Minneapolis Center
01:15PM 44.5839 -92.3742 273° West 137 158 2,500 -540 Descending Minneapolis Center
01:16PM 44.5864 -92.4247 274° West 130 150 1,700 -780 Descending Minneapolis Center
01:17PM 44.5872 -92.4628 272° West 114 131 1,000 -720 Descending Minneapolis Center